sensor_id;sensor_type;location;lat;lon;timestamp;pressure;altitude;pressure_sealevel;temperature;humidity
81379;BME280;70830;42.290;-71.354;2024-01-16T00:01:53;101670.69;;;-1.11;35.84
81379;BME280;70830;42.290;-71.354;2024-01-16T00:04:20;101672.59;;;-1.03;35.87
81379;BME280;70830;42.290;-71.354;2024-01-16T00:06:45;101678.59;;;-1.05;35.84
81379;BME280;70830;42.290;-71.354;2024-01-16T00:09:13;101654.25;;;-1.13;35.79
81379;BME280;70830;42.290;-71.354;2024-01-16T00:11:42;101707.31;;;-0.93;36.10
81379;BME280;70830;42.290;-71.354;2024-01-16T00:14:09;101720.28;;;-0.92;35.95
81379;BME280;70830;42.290;-71.354;2024-01-16T00:16:42;101665.38;;;-1.17;36.05
81379;BME280;70830;42.290;-71.354;2024-01-16T00:19:09;101708.25;;;-0.91;36.20
81379;BME280;70830;42.290;-71.354;2024-01-16T00:21:39;101709.97;;;-0.90;36.68
81379;BME280;70830;42.290;-71.354;2024-01-16T00:24:05;101697.88;;;-0.91;36.40
81379;BME280;70830;42.290;-71.354;2024-01-16T00:26:31;101689.25;;;-0.90;36.80
81379;BME280;70830;42.290;-71.354;2024-01-16T00:28:56;101658.59;;;-1.12;36.03
81379;BME280;70830;42.290;-71.354;2024-01-16T00:31:22;101675.03;;;-1.09;35.33
81379;BME280;70830;42.290;-71.354;2024-01-16T00:33:49;101702.84;;;-1.00;35.56
81379;BME280;70830;42.290;-71.354;2024-01-16T00:36:15;101649.66;;;-1.26;35.96
81379;BME280;70830;42.290;-71.354;2024-01-16T00:38:40;101670.50;;;-1.20;36.45
81379;BME280;70830;42.290;-71.354;2024-01-16T00:41:06;101631.09;;;-1.46;35.89
81379;BME280;70830;42.290;-71.354;2024-01-16T00:43:32;101661.53;;;-1.34;36.20
81379;BME280;70830;42.290;-71.354;2024-01-16T00:46:01;101670.22;;;-1.32;36.00
81379;BME280;70830;42.290;-71.354;2024-01-16T00:48:27;101663.91;;;-1.43;35.95
81379;BME280;70830;42.290;-71.354;2024-01-16T00:50:53;101672.53;;;-1.44;35.71
81379;BME280;70830;42.290;-71.354;2024-01-16T00:53:19;101655.03;;;-1.56;35.54
81379;BME280;70830;42.290;-71.354;2024-01-16T00:55:45;101654.06;;;-1.60;35.66
81379;BME280;70830;42.290;-71.354;2024-01-16T00:58:11;101617.38;;;-1.81;35.74
81379;BME280;70830;42.290;-71.354;2024-01-16T01:00:38;101637.47;;;-1.69;36.03
81379;BME280;70830;42.290;-71.354;2024-01-16T01:03:04;101643.56;;;-1.66;36.46
81379;BME280;70830;42.290;-71.354;2024-01-16T01:05:30;101603.38;;;-1.89;35.70
81379;BME280;70830;42.290;-71.354;2024-01-16T01:07:57;101620.72;;;-1.85;36.33
81379;BME280;70830;42.290;-71.354;2024-01-16T01:10:23;101633.59;;;-1.86;37.09
81379;BME280;70830;42.290;-71.354;2024-01-16T01:12:49;101643.13;;;-1.84;37.52
81379;BME280;70830;42.290;-71.354;2024-01-16T01:15:17;101619.47;;;-2.00;37.05
81379;BME280;70830;42.290;-71.354;2024-01-16T01:17:43;101638.72;;;-1.88;37.13
81379;BME280;70830;42.290;-71.354;2024-01-16T01:20:09;101648.16;;;-1.90;37.23
81379;BME280;70830;42.290;-71.354;2024-01-16T01:22:37;101632.53;;;-1.96;37.60
81379;BME280;70830;42.290;-71.354;2024-01-16T01:25:04;101609.81;;;-2.09;36.70
81379;BME280;70830;42.290;-71.354;2024-01-16T01:27:30;101643.78;;;-1.92;37.81
81379;BME280;70830;42.290;-71.354;2024-01-16T01:29:56;101656.03;;;-1.85;37.15
81379;BME280;70830;42.290;-71.354;2024-01-16T01:32:23;101663.22;;;-1.74;37.49
81379;BME280;70830;42.290;-71.354;2024-01-16T01:34:49;101623.78;;;-2.01;37.11
81379;BME280;70830;42.290;-71.354;2024-01-16T01:37:15;101660.53;;;-1.77;37.29
81379;BME280;70830;42.290;-71.354;2024-01-16T01:39:41;101672.84;;;-1.67;37.71
81379;BME280;70830;42.290;-71.354;2024-01-16T01:42:07;101672.03;;;-1.64;37.97
81379;BME280;70830;42.290;-71.354;2024-01-16T01:44:33;101672.03;;;-1.64;37.63
81379;BME280;70830;42.290;-71.354;2024-01-16T01:46:59;101666.88;;;-1.64;37.33
81379;BME280;70830;42.290;-71.354;2024-01-16T01:49:26;101663.53;;;-1.60;37.10
81379;BME280;70830;42.290;-71.354;2024-01-16T01:51:54;101651.13;;;-1.73;36.93
81379;BME280;70830;42.290;-71.354;2024-01-16T01:54:21;101673.22;;;-1.52;37.41
81379;BME280;70830;42.290;-71.354;2024-01-16T01:56:48;101674.03;;;-1.53;37.25
81379;BME280;70830;42.290;-71.354;2024-01-16T01:59:17;101672.31;;;-1.54;37.84
81379;BME280;70830;42.290;-71.354;2024-01-16T02:01:47;101660.00;;;-1.64;37.22
81379;BME280;70830;42.290;-71.354;2024-01-16T02:04:17;101669.53;;;-1.61;37.44
81379;BME280;70830;42.290;-71.354;2024-01-16T02:06:44;101659.13;;;-1.64;37.61
81379;BME280;70830;42.290;-71.354;2024-01-16T02:09:32;101601.56;;;-1.93;37.23
81379;BME280;70830;42.290;-71.354;2024-01-16T02:11:58;101687.09;;;-1.47;37.42
81379;BME280;70830;42.290;-71.354;2024-01-16T02:14:24;101661.13;;;-1.53;37.41
81379;BME280;70830;42.290;-71.354;2024-01-16T02:16:51;101685.50;;;-1.43;36.56
81379;BME280;70830;42.290;-71.354;2024-01-16T02:19:17;101690.69;;;-1.41;36.72
81379;BME280;70830;42.290;-71.354;2024-01-16T02:21:48;101681.00;;;-1.50;37.35
81379;BME280;70830;42.290;-71.354;2024-01-16T02:24:15;101676.75;;;-1.48;36.90
81379;BME280;70830;42.290;-71.354;2024-01-16T02:26:42;101689.00;;;-1.39;36.95
81379;BME280;70830;42.290;-71.354;2024-01-16T02:29:09;101677.72;;;-1.44;37.19
81379;BME280;70830;42.290;-71.354;2024-01-16T02:31:35;101684.69;;;-1.40;37.48
81379;BME280;70830;42.290;-71.354;2024-01-16T02:34:01;101661.09;;;-1.54;37.16
81379;BME280;70830;42.290;-71.354;2024-01-16T02:36:29;101654.34;;;-1.48;37.10
81379;BME280;70830;42.290;-71.354;2024-01-16T02:38:55;101674.47;;;-1.34;37.78
81379;BME280;70830;42.290;-71.354;2024-01-16T02:41:22;101665.91;;;-1.33;37.59
81379;BME280;70830;42.290;-71.354;2024-01-16T02:43:48;101667.63;;;-1.32;38.13
81379;BME280;70830;42.290;-71.354;2024-01-16T02:46:14;101663.91;;;-1.43;37.80
81379;BME280;70830;42.290;-71.354;2024-01-16T02:48:41;101689.19;;;-1.32;38.01
81379;BME280;70830;42.290;-71.354;2024-01-16T02:51:08;101683.94;;;-1.35;37.76
81379;BME280;70830;42.290;-71.354;2024-01-16T02:53:34;101681.25;;;-1.39;38.31
81379;BME280;70830;42.290;-71.354;2024-01-16T02:56:00;101682.94;;;-1.41;37.93
81379;BME280;70830;42.290;-71.354;2024-01-16T02:58:27;101696.00;;;-1.35;37.93
81379;BME280;70830;42.290;-71.354;2024-01-16T03:00:52;101668.19;;;-1.45;38.26
81379;BME280;70830;42.290;-71.354;2024-01-16T03:03:19;101698.69;;;-1.31;38.39
81379;BME280;70830;42.290;-71.354;2024-01-16T03:05:46;101663.09;;;-1.42;38.45
81379;BME280;70830;42.290;-71.354;2024-01-16T03:08:12;101681.47;;;-1.30;38.28
81379;BME280;70830;42.290;-71.354;2024-01-16T03:10:38;101685.84;;;-1.26;38.46
81379;BME280;70830;42.290;-71.354;2024-01-16T03:13:04;101659.72;;;-1.38;38.95
81379;BME280;70830;42.290;-71.354;2024-01-16T03:15:30;101661.44;;;-1.39;38.67
81379;BME280;70830;42.290;-71.354;2024-01-16T03:17:57;101658.81;;;-1.40;38.88
81379;BME280;70830;42.290;-71.354;2024-01-16T03:20:23;101692.81;;;-1.24;38.56
81379;BME280;70830;42.290;-71.354;2024-01-16T03:22:50;101685.94;;;-1.23;38.92
81379;BME280;70830;42.290;-71.354;2024-01-16T03:25:19;101698.09;;;-1.19;39.37
81379;BME280;70830;42.290;-71.354;2024-01-16T03:27:46;101662.53;;;-1.29;39.32
81379;BME280;70830;42.290;-71.354;2024-01-16T03:30:13;101690.44;;;-1.15;39.37
81379;BME280;70830;42.290;-71.354;2024-01-16T03:32:39;101675.66;;;-1.20;39.48
81379;BME280;70830;42.290;-71.354;2024-01-16T03:35:06;101646.09;;;-1.31;39.21
81379;BME280;70830;42.290;-71.354;2024-01-16T03:37:32;101647.00;;;-1.29;39.51
81379;BME280;70830;42.290;-71.354;2024-01-16T03:39:58;101688.84;;;-1.08;38.91
81379;BME280;70830;42.290;-71.354;2024-01-16T03:42:26;101679.16;;;-1.18;39.22
81379;BME280;70830;42.290;-71.354;2024-01-16T03:44:52;101700.91;;;-1.09;39.60
81379;BME280;70830;42.290;-71.354;2024-01-16T03:47:18;101683.53;;;-1.16;39.31
81379;BME280;70830;42.290;-71.354;2024-01-16T03:49:44;101679.06;;;-1.23;39.13
81379;BME280;70830;42.290;-71.354;2024-01-16T03:52:10;101683.47;;;-1.17;39.16
81379;BME280;70830;42.290;-71.354;2024-01-16T03:54:35;101691.41;;;-1.11;39.46
81379;BME280;70830;42.290;-71.354;2024-01-16T03:57:01;101678.31;;;-1.17;39.28
81379;BME280;70830;42.290;-71.354;2024-01-16T03:59:27;101672.19;;;-1.22;38.98
81379;BME280;70830;42.290;-71.354;2024-01-16T04:01:53;101675.78;;;-1.14;39.40
81379;BME280;70830;42.290;-71.354;2024-01-16T04:04:19;101685.38;;;-1.10;39.56
81379;BME280;70830;42.290;-71.354;2024-01-16T04:06:46;101667.06;;;-1.19;39.97
81379;BME280;70830;42.290;-71.354;2024-01-16T04:09:12;101684.53;;;-1.09;39.69
81379;BME280;70830;42.290;-71.354;2024-01-16T04:11:40;101681.78;;;-1.15;39.41
81379;BME280;70830;42.290;-71.354;2024-01-16T04:14:06;101687.06;;;-1.12;39.85
81379;BME280;70830;42.290;-71.354;2024-01-16T04:16:32;101689.63;;;-1.12;39.95
81379;BME280;70830;42.290;-71.354;2024-01-16T04:18:58;101673.91;;;-1.21;39.99
81379;BME280;70830;42.290;-71.354;2024-01-16T04:21:24;101687.13;;;-1.09;39.78
81379;BME280;70830;42.290;-71.354;2024-01-16T04:23:50;101686.28;;;-1.08;39.84
81379;BME280;70830;42.290;-71.354;2024-01-16T04:26:17;101688.84;;;-1.10;40.30
81379;BME280;70830;42.290;-71.354;2024-01-16T04:28:42;101680.03;;;-1.18;40.10
81379;BME280;70830;42.290;-71.354;2024-01-16T04:31:08;101633.91;;;-1.35;40.23
81379;BME280;70830;42.290;-71.354;2024-01-16T04:33:34;101654.06;;;-1.22;40.53
81379;BME280;70830;42.290;-71.354;2024-01-16T04:36:00;101660.97;;;-1.21;40.19
81379;BME280;70830;42.290;-71.354;2024-01-16T04:38:26;101668.06;;;-1.13;40.23
81379;BME280;70830;42.290;-71.354;2024-01-16T04:40:52;101657.72;;;-1.13;40.41
81379;BME280;70830;42.290;-71.354;2024-01-16T04:43:18;101674.13;;;-1.11;40.36
81379;BME280;70830;42.290;-71.354;2024-01-16T04:45:43;101668.13;;;-1.10;40.22
81379;BME280;70830;42.290;-71.354;2024-01-16T04:48:10;101658.50;;;-1.15;40.29
81379;BME280;70830;42.290;-71.354;2024-01-16T04:50:36;101682.84;;;-1.07;40.47
81379;BME280;70830;42.290;-71.354;2024-01-16T04:53:02;101628.03;;;-1.28;40.50
81379;BME280;70830;42.290;-71.354;2024-01-16T04:55:31;101639.38;;;-1.23;40.48
81379;BME280;70830;42.290;-71.354;2024-01-16T04:57:57;101635.13;;;-1.20;40.43
81379;BME280;70830;42.290;-71.354;2024-01-16T05:00:24;101656.00;;;-1.12;40.61
81379;BME280;70830;42.290;-71.354;2024-01-16T05:02:50;101634.19;;;-1.23;40.10
81379;BME280;70830;42.290;-71.354;2024-01-16T05:05:16;101635.13;;;-1.20;40.80
81379;BME280;70830;42.290;-71.354;2024-01-16T05:07:43;101649.06;;;-1.13;40.79
81379;BME280;70830;42.290;-71.354;2024-01-16T05:10:12;101635.22;;;-1.17;40.53
81379;BME280;70830;42.290;-71.354;2024-01-16T05:12:39;101612.59;;;-1.25;40.71
81379;BME280;70830;42.290;-71.354;2024-01-16T05:15:06;101599.59;;;-1.28;40.74
81379;BME280;70830;42.290;-71.354;2024-01-16T05:17:33;101603.16;;;-1.23;41.26
81379;BME280;70830;42.290;-71.354;2024-01-16T05:19:59;101589.22;;;-1.31;41.49
81379;BME280;70830;42.290;-71.354;2024-01-16T05:22:25;101588.41;;;-1.29;40.85
81379;BME280;70830;42.290;-71.354;2024-01-16T05:24:51;101570.13;;;-1.36;40.95
81379;BME280;70830;42.290;-71.354;2024-01-16T05:27:17;101588.47;;;-1.24;41.20
81379;BME280;70830;42.290;-71.354;2024-01-16T05:29:43;101592.13;;;-1.15;40.99
81379;BME280;70830;42.290;-71.354;2024-01-16T05:32:09;101591.09;;;-1.23;41.06
81379;BME280;70830;42.290;-71.354;2024-01-16T05:34:35;101605.94;;;-1.14;41.41
81379;BME280;70830;42.290;-71.354;2024-01-16T05:37:00;101562.38;;;-1.36;41.69
81379;BME280;70830;42.290;-71.354;2024-01-16T05:39:26;101577.09;;;-1.32;41.95
81379;BME280;70830;42.290;-71.354;2024-01-16T05:41:52;101591.91;;;-1.25;41.93
81379;BME280;70830;42.290;-71.354;2024-01-16T05:44:18;101584.84;;;-1.34;42.92
81379;BME280;70830;42.290;-71.354;2024-01-16T05:46:44;101556.09;;;-1.48;42.67
81379;BME280;70830;42.290;-71.354;2024-01-16T05:49:10;101603.88;;;-1.30;43.22
81379;BME280;70830;42.290;-71.354;2024-01-16T05:51:36;101583.03;;;-1.38;43.23
81379;BME280;70830;42.290;-71.354;2024-01-16T05:54:02;101596.06;;;-1.33;43.18
81379;BME280;70830;42.290;-71.354;2024-01-16T05:56:30;101574.88;;;-1.55;45.61
81379;BME280;70830;42.290;-71.354;2024-01-16T05:58:56;101579.94;;;-1.61;46.98
81379;BME280;70830;42.290;-71.354;2024-01-16T06:01:22;101591.78;;;-1.69;47.25
81379;BME280;70830;42.290;-71.354;2024-01-16T06:03:48;101583.78;;;-1.81;45.80
81379;BME280;70830;42.290;-71.354;2024-01-16T06:06:14;101588.84;;;-1.85;46.28
81379;BME280;70830;42.290;-71.354;2024-01-16T06:08:40;101556.50;;;-2.04;47.74
81379;BME280;70830;42.290;-71.354;2024-01-16T06:11:07;101584.34;;;-1.94;47.57
81379;BME280;70830;42.290;-71.354;2024-01-16T06:13:33;101566.84;;;-2.04;48.45
81379;BME280;70830;42.290;-71.354;2024-01-16T06:15:59;101603.34;;;-1.90;49.30
81379;BME280;70830;42.290;-71.354;2024-01-16T06:18:24;101589.31;;;-2.01;48.36
81379;BME280;70830;42.290;-71.354;2024-01-16T06:20:51;101599.66;;;-2.00;49.14
81379;BME280;70830;42.290;-71.354;2024-01-16T06:23:16;101583.75;;;-2.18;49.79
81379;BME280;70830;42.290;-71.354;2024-01-16T06:25:43;101581.97;;;-2.20;49.98
81379;BME280;70830;42.290;-71.354;2024-01-16T06:28:09;101594.34;;;-2.07;51.25
81379;BME280;70830;42.290;-71.354;2024-01-16T06:30:35;101604.78;;;-2.03;51.32
81379;BME280;70830;42.290;-71.354;2024-01-16T06:33:01;101592.66;;;-2.05;51.81
81379;BME280;70830;42.290;-71.354;2024-01-16T06:35:26;101582.91;;;-2.15;53.02
81379;BME280;70830;42.290;-71.354;2024-01-16T06:37:52;101603.88;;;-2.05;53.32
81379;BME280;70830;42.290;-71.354;2024-01-16T06:40:18;101612.31;;;-2.10;53.64
81379;BME280;70830;42.290;-71.354;2024-01-16T06:42:44;101572.09;;;-2.35;52.93
81379;BME280;70830;42.290;-71.354;2024-01-16T06:45:10;101572.03;;;-2.38;53.18
81379;BME280;70830;42.290;-71.354;2024-01-16T06:47:38;101601.75;;;-2.21;54.22
81379;BME280;70830;42.290;-71.354;2024-01-16T06:50:05;101620.81;;;-2.16;54.79
81379;BME280;70830;42.290;-71.354;2024-01-16T06:52:31;101615.31;;;-2.28;55.02
81379;BME280;70830;42.290;-71.354;2024-01-16T06:54:57;101598.53;;;-2.45;55.08
81379;BME280;70830;42.290;-71.354;2024-01-16T06:57:23;101621.00;;;-2.41;57.02
81379;BME280;70830;42.290;-71.354;2024-01-16T06:59:49;101610.44;;;-2.50;56.96
81379;BME280;70830;42.290;-71.354;2024-01-16T07:02:15;101590.19;;;-2.68;57.34
81379;BME280;70830;42.290;-71.354;2024-01-16T07:04:41;101617.94;;;-2.59;58.34
81379;BME280;70830;42.290;-71.354;2024-01-16T07:07:07;101612.72;;;-2.62;58.63
81379;BME280;70830;42.290;-71.354;2024-01-16T07:09:33;101574.03;;;-2.92;58.16
81379;BME280;70830;42.290;-71.354;2024-01-16T07:11:59;101584.75;;;-2.78;57.92
81379;BME280;70830;42.290;-71.354;2024-01-16T07:14:25;101611.06;;;-2.59;58.79
81379;BME280;70830;42.290;-71.354;2024-01-16T07:16:51;101586.84;;;-2.64;58.88
81379;BME280;70830;42.290;-71.354;2024-01-16T07:19:16;101567.72;;;-2.72;58.75
81379;BME280;70830;42.290;-71.354;2024-01-16T07:21:42;101594.94;;;-2.52;58.84
81379;BME280;70830;42.290;-71.354;2024-01-16T07:24:10;101579.31;;;-2.56;58.95
81379;BME280;70830;42.290;-71.354;2024-01-16T07:26:36;101594.13;;;-2.49;59.42
81379;BME280;70830;42.290;-71.354;2024-01-16T07:29:02;101584.50;;;-2.55;59.52
81379;BME280;70830;42.290;-71.354;2024-01-16T07:31:28;101580.13;;;-2.57;59.57
81379;BME280;70830;42.290;-71.354;2024-01-16T07:33:53;101582.81;;;-2.54;59.65
81379;BME280;70830;42.290;-71.354;2024-01-16T07:36:19;101549.84;;;-2.64;60.40
81379;BME280;70830;42.290;-71.354;2024-01-16T07:38:45;101573.47;;;-2.49;60.55
81379;BME280;70830;42.290;-71.354;2024-01-16T07:41:11;101554.41;;;-2.54;60.11
81379;BME280;70830;42.290;-71.354;2024-01-16T07:43:37;101561.41;;;-2.49;60.66
81379;BME280;70830;42.290;-71.354;2024-01-16T07:46:03;101536.22;;;-2.59;60.08
81379;BME280;70830;42.290;-71.354;2024-01-16T07:48:29;101517.09;;;-2.67;60.74
81379;BME280;70830;42.290;-71.354;2024-01-16T07:50:55;101517.13;;;-2.65;60.98
81379;BME280;70830;42.290;-71.354;2024-01-16T07:53:21;101545.81;;;-2.53;61.08
81379;BME280;70830;42.290;-71.354;2024-01-16T07:55:47;101543.22;;;-2.55;61.71
81379;BME280;70830;42.290;-71.354;2024-01-16T07:58:13;101538.94;;;-2.54;61.69
81379;BME280;70830;42.290;-71.354;2024-01-16T08:00:39;101542.31;;;-2.57;61.59
81379;BME280;70830;42.290;-71.354;2024-01-16T08:03:08;101526.56;;;-2.67;61.70
81379;BME280;70830;42.290;-71.354;2024-01-16T08:05:37;101530.06;;;-2.64;62.08
81379;BME280;70830;42.290;-71.354;2024-01-16T08:08:04;101524.09;;;-2.63;62.49
81379;BME280;70830;42.290;-71.354;2024-01-16T08:10:30;101530.03;;;-2.65;62.88
81379;BME280;70830;42.290;-71.354;2024-01-16T08:12:56;101542.28;;;-2.58;62.99
81379;BME280;70830;42.290;-71.354;2024-01-16T08:15:22;101515.22;;;-2.72;62.41
81379;BME280;70830;42.290;-71.354;2024-01-16T08:17:48;101510.69;;;-2.82;63.21
81379;BME280;70830;42.290;-71.354;2024-01-16T08:20:14;101539.50;;;-2.64;62.89
81379;BME280;70830;42.290;-71.354;2024-01-16T08:22:40;101521.25;;;-2.73;62.76
81379;BME280;70830;42.290;-71.354;2024-01-16T08:25:06;101524.66;;;-2.73;62.57
81379;BME280;70830;42.290;-71.354;2024-01-16T08:27:32;101498.56;;;-2.85;63.34
81379;BME280;70830;42.290;-71.354;2024-01-16T08:29:58;101493.53;;;-2.80;63.32
81379;BME280;70830;42.290;-71.354;2024-01-16T08:32:24;101463.09;;;-2.93;63.34
81379;BME280;70830;42.290;-71.354;2024-01-16T08:34:50;101465.91;;;-2.84;63.11
81379;BME280;70830;42.290;-71.354;2024-01-16T08:37:16;101495.81;;;-2.58;64.17
81379;BME280;70830;42.290;-71.354;2024-01-16T08:39:42;101475.72;;;-2.70;63.87
81379;BME280;70830;42.290;-71.354;2024-01-16T08:42:08;101473.06;;;-2.73;63.99
81379;BME280;70830;42.290;-71.354;2024-01-16T08:44:39;101513.13;;;-2.53;63.77
81379;BME280;70830;42.290;-71.354;2024-01-16T08:47:05;101493.38;;;-2.52;64.11
81379;BME280;70830;42.290;-71.354;2024-01-16T08:49:32;101467.19;;;-2.67;64.18
81379;BME280;70830;42.290;-71.354;2024-01-16T08:51:59;101485.50;;;-2.57;64.05
81379;BME280;70830;42.290;-71.354;2024-01-16T08:54:25;101454.81;;;-2.80;64.34
81379;BME280;70830;42.290;-71.354;2024-01-16T08:56:54;101492.38;;;-2.57;63.77
81379;BME280;70830;42.290;-71.354;2024-01-16T08:59:20;101498.41;;;-2.58;63.91
81379;BME280;70830;42.290;-71.354;2024-01-16T09:01:46;101489.56;;;-2.66;64.00
81379;BME280;70830;42.290;-71.354;2024-01-16T09:04:12;101506.94;;;-2.61;64.21
81379;BME280;70830;42.290;-71.354;2024-01-16T09:06:38;101449.44;;;-2.89;64.36
81379;BME280;70830;42.290;-71.354;2024-01-16T09:09:04;101467.00;;;-2.75;64.74
81379;BME280;70830;42.290;-71.354;2024-01-16T09:11:30;101441.84;;;-2.83;63.98
81379;BME280;70830;42.290;-71.354;2024-01-16T09:13:57;101471.56;;;-2.65;64.35
81379;BME280;70830;42.290;-71.354;2024-01-16T09:16:23;101480.13;;;-2.66;64.34
81379;BME280;70830;42.290;-71.354;2024-01-16T09:18:49;101477.28;;;-2.76;64.52
81379;BME280;70830;42.290;-71.354;2024-01-16T09:21:16;101461.84;;;-2.75;64.53
81379;BME280;70830;42.290;-71.354;2024-01-16T09:23:42;101434.78;;;-2.90;64.44
81379;BME280;70830;42.290;-71.354;2024-01-16T09:26:07;101435.63;;;-2.91;64.97
81379;BME280;70830;42.290;-71.354;2024-01-16T09:28:33;101476.53;;;-2.71;64.85
81379;BME280;70830;42.290;-71.354;2024-01-16T09:30:59;101457.31;;;-2.83;65.15
81379;BME280;70830;42.290;-71.354;2024-01-16T09:33:25;101433.00;;;-2.93;64.85
81379;BME280;70830;42.290;-71.354;2024-01-16T09:35:51;101452.94;;;-2.86;65.20
81379;BME280;70830;42.290;-71.354;2024-01-16T09:38:18;101454.97;;;-2.74;64.86
81379;BME280;70830;42.290;-71.354;2024-01-16T09:40:44;101432.56;;;-2.75;65.13
81379;BME280;70830;42.290;-71.354;2024-01-16T09:43:11;101431.75;;;-2.74;64.94
81379;BME280;70830;42.290;-71.354;2024-01-16T09:45:38;101415.22;;;-2.82;65.68
81379;BME280;70830;42.290;-71.354;2024-01-16T09:48:05;101416.84;;;-2.86;65.36
81379;BME280;70830;42.290;-71.354;2024-01-16T09:50:33;101431.84;;;-2.71;66.07
81379;BME280;70830;42.290;-71.354;2024-01-16T09:53:00;101437.91;;;-2.69;66.12
81379;BME280;70830;42.290;-71.354;2024-01-16T09:55:26;101424.69;;;-2.81;66.18
81379;BME280;70830;42.290;-71.354;2024-01-16T09:57:52;101434.41;;;-2.71;66.07
81379;BME280;70830;42.290;-71.354;2024-01-16T10:00:21;101439.50;;;-2.74;65.57
81379;BME280;70830;42.290;-71.354;2024-01-16T10:02:50;101442.84;;;-2.78;65.38
81379;BME280;70830;42.290;-71.354;2024-01-16T10:05:16;101420.31;;;-2.84;65.97
81379;BME280;70830;42.290;-71.354;2024-01-16T10:07:42;101433.53;;;-2.72;66.13
81379;BME280;70830;42.290;-71.354;2024-01-16T10:10:11;101423.78;;;-2.83;65.87
81379;BME280;70830;42.290;-71.354;2024-01-16T10:12:39;101435.25;;;-2.71;66.28
81379;BME280;70830;42.290;-71.354;2024-01-16T10:15:08;101419.84;;;-2.69;66.45
81379;BME280;70830;42.290;-71.354;2024-01-16T10:17:36;101417.25;;;-2.69;66.31
81379;BME280;70830;42.290;-71.354;2024-01-16T10:20:03;101405.31;;;-2.64;66.11
81379;BME280;70830;42.290;-71.354;2024-01-16T10:22:30;101380.06;;;-2.77;65.90
81379;BME280;70830;42.290;-71.354;2024-01-16T10:25:06;101401.81;;;-2.66;66.16
81379;BME280;70830;42.290;-71.354;2024-01-16T10:27:34;101410.41;;;-2.67;66.04
81379;BME280;70830;42.290;-71.354;2024-01-16T10:30:00;101393.75;;;-2.80;66.29
81379;BME280;70830;42.290;-71.354;2024-01-16T10:32:40;101384.41;;;-2.76;66.21
81379;BME280;70830;42.290;-71.354;2024-01-16T10:35:10;101407.72;;;-2.73;66.11
81379;BME280;70830;42.290;-71.354;2024-01-16T10:37:50;101373.72;;;-2.91;65.95
81379;BME280;70830;42.290;-71.354;2024-01-16T10:40:23;101398.22;;;-2.73;66.82
81379;BME280;70830;42.290;-71.354;2024-01-16T10:43:02;101390.50;;;-2.73;66.65
81379;BME280;70830;42.290;-71.354;2024-01-16T10:45:33;101388.69;;;-2.75;66.76
81379;BME280;70830;42.290;-71.354;2024-01-16T10:48:06;101391.28;;;-2.75;66.31
81379;BME280;70830;42.290;-71.354;2024-01-16T10:50:34;101370.47;;;-2.84;66.46
81379;BME280;70830;42.290;-71.354;2024-01-16T10:53:04;101369.34;;;-2.94;67.25
81379;BME280;70830;42.290;-71.354;2024-01-16T10:55:30;101379.09;;;-2.82;66.86
81379;BME280;70830;42.290;-71.354;2024-01-16T10:57:58;101370.16;;;-2.97;67.31
81379;BME280;70830;42.290;-71.354;2024-01-16T11:00:27;101395.38;;;-2.85;66.63
81379;BME280;70830;42.290;-71.354;2024-01-16T11:05:27;101341.63;;;-3.03;67.07
81379;BME280;70830;42.290;-71.354;2024-01-16T11:07:56;101369.50;;;-2.88;67.62
81379;BME280;70830;42.290;-71.354;2024-01-16T11:10:25;101358.28;;;-2.88;67.60
81379;BME280;70830;42.290;-71.354;2024-01-16T11:12:52;101349.81;;;-2.84;67.36
81379;BME280;70830;42.290;-71.354;2024-01-16T11:15:19;101358.38;;;-2.85;67.42
81379;BME280;70830;42.290;-71.354;2024-01-16T11:17:45;101346.28;;;-2.88;67.69
81379;BME280;70830;42.290;-71.354;2024-01-16T11:20:12;101348.97;;;-2.83;67.36
81379;BME280;70830;42.290;-71.354;2024-01-16T11:22:41;101340.34;;;-2.84;67.81
81379;BME280;70830;42.290;-71.354;2024-01-16T11:25:13;101366.41;;;-2.73;67.87
81379;BME280;70830;42.290;-71.354;2024-01-16T11:27:41;101323.16;;;-2.83;67.80
81379;BME280;70830;42.290;-71.354;2024-01-16T11:30:09;101317.22;;;-2.79;67.32
81379;BME280;70830;42.290;-71.354;2024-01-16T11:32:37;101337.41;;;-2.63;67.67
81379;BME280;70830;42.290;-71.354;2024-01-16T11:35:04;101283.56;;;-2.85;67.40
81379;BME280;70830;42.290;-71.354;2024-01-16T11:37:30;101320.94;;;-2.68;66.86
81379;BME280;70830;42.290;-71.354;2024-01-16T11:42:51;101247.28;;;-2.93;67.48
81379;BME280;70830;42.290;-71.354;2024-01-16T11:45:47;101216.66;;;-3.17;67.83
81379;BME280;70830;42.290;-71.354;2024-01-16T11:48:15;101302.63;;;-2.79;67.22
81379;BME280;70830;42.290;-71.354;2024-01-16T11:50:42;101320.59;;;-2.83;67.03
81379;BME280;70830;42.290;-71.354;2024-01-16T11:53:08;101278.00;;;-3.02;67.69
81379;BME280;70830;42.290;-71.354;2024-01-16T11:55:51;101306.88;;;-2.82;68.07
81379;BME280;70830;42.290;-71.354;2024-01-16T12:01:11;101287.81;;;-2.89;68.50
81379;BME280;70830;42.290;-71.354;2024-01-16T12:03:37;101305.25;;;-2.77;67.93
81379;BME280;70830;42.290;-71.354;2024-01-16T12:06:03;101292.22;;;-2.82;67.64
81379;BME280;70830;42.290;-71.354;2024-01-16T12:08:32;101277.50;;;-2.87;67.81
81379;BME280;70830;42.290;-71.354;2024-01-16T12:10:58;101300.16;;;-2.74;68.14
81379;BME280;70830;42.290;-71.354;2024-01-16T12:13:25;101263.63;;;-2.92;68.25
81379;BME280;70830;42.290;-71.354;2024-01-16T12:16:01;101298.59;;;-2.68;68.09
81379;BME280;70830;42.290;-71.354;2024-01-16T12:18:27;101266.41;;;-2.83;67.48
81379;BME280;70830;42.290;-71.354;2024-01-16T12:20:54;101266.78;;;-2.67;68.20
81379;BME280;70830;42.290;-71.354;2024-01-16T12:23:19;101254.75;;;-2.66;67.53
81379;BME280;70830;42.290;-71.354;2024-01-16T12:25:52;101233.06;;;-2.76;67.91
81379;BME280;70830;42.290;-71.354;2024-01-16T12:28:20;101239.25;;;-2.66;67.64
81379;BME280;70830;42.290;-71.354;2024-01-16T12:30:50;101229.91;;;-2.61;67.49
81379;BME280;70830;42.290;-71.354;2024-01-16T12:33:22;101234.25;;;-2.59;68.26
81379;BME280;70830;42.290;-71.354;2024-01-16T12:35:48;101226.53;;;-2.57;68.09
81379;BME280;70830;42.290;-71.354;2024-01-16T12:38:15;101214.53;;;-2.55;67.55